createdAt,value
2018-11-06T00:00:03.160Z,7.6
2018-11-06T00:15:03.440Z,7.5
2018-11-06T00:30:02.784Z,7.3
2018-11-06T00:45:03.128Z,7.2
2018-11-06T01:00:03.378Z,6.8
2018-11-06T01:15:02.659Z,6.9
2018-11-06T01:30:03.077Z,6.5
2018-11-06T01:45:03.397Z,6.2
2018-11-06T02:00:02.682Z,6.2
2018-11-06T02:15:02.869Z,5.3
2018-11-06T02:30:03.361Z,5.4
2018-11-06T02:45:02.755Z,5.6
2018-11-06T03:00:03.089Z,5.8
2018-11-06T03:15:03.297Z,5.8
2018-11-06T03:30:02.696Z,5.7
2018-11-06T03:45:03.103Z,5.7
2018-11-06T04:00:02.608Z,5.3
2018-11-06T04:15:02.981Z,4.9
2018-11-06T04:30:03.207Z,5.1
2018-11-06T04:45:02.600Z,5.1
2018-11-06T05:00:03.069Z,5.3
2018-11-06T05:15:03.330Z,5.3
2018-11-06T05:30:02.708Z,5.3
2018-11-06T05:45:03.093Z,5.4
2018-11-06T06:00:03.399Z,5.2
2018-11-06T06:15:02.813Z,5.1
2018-11-06T06:30:03.299Z,5.3
2018-11-06T06:45:02.803Z,5.4
2018-11-06T07:00:03.022Z,5.6
2018-11-06T07:15:03.334Z,6.1
2018-11-06T07:30:02.689Z,6.6
2018-11-06T07:45:03.002Z,7.2
2018-11-06T08:00:03.474Z,8
2018-11-06T08:15:03.081Z,8.8
2018-11-06T08:30:03.290Z,9.7
2018-11-06T08:45:02.727Z,10.4
2018-11-06T09:00:02.870Z,11.1
2018-11-06T09:15:03.217Z,12.1
2018-11-06T09:30:02.837Z,12.2
2018-11-06T09:45:03.155Z,13
2018-11-06T10:00:02.531Z,13.9
2018-11-06T10:15:02.838Z,14.7
2018-11-06T10:30:03.208Z,15.2
2018-11-06T10:45:02.478Z,15.5
2018-11-06T11:00:02.856Z,15.9
2018-11-06T11:15:03.149Z,16.3
2018-11-06T11:30:02.523Z,17.2
2018-11-06T11:45:02.870Z,17.7
2018-11-06T12:00:03.241Z,18.3
2018-11-06T12:15:02.625Z,17.8
2018-11-06T12:30:03.229Z,17.6
2018-11-06T12:45:02.782Z,17.5
2018-11-06T13:00:02.948Z,17.6
2018-11-06T13:15:03.298Z,17.7
2018-11-06T13:30:02.612Z,17.8
2018-11-06T13:45:03.116Z,17.8
2018-11-06T14:00:02.502Z,17.4
2018-11-06T14:15:02.711Z,17.1
2018-11-06T14:30:03.068Z,17.1
2018-11-06T14:45:03.476Z,16.9
2018-11-06T15:00:02.866Z,16.5
2018-11-06T15:15:03.173Z,15.9
2018-11-06T15:30:02.460Z,15.2
2018-11-06T15:45:02.827Z,14.7
2018-11-06T16:00:03.169Z,14.2
2018-11-06T16:15:03.450Z,13.8
2018-11-06T16:30:02.823Z,13
2018-11-06T16:45:03.183Z,12.8
2018-11-06T17:00:03.568Z,12
2018-11-06T17:15:02.913Z,11.1
2018-11-06T17:30:03.293Z,11.2
2018-11-06T17:45:02.914Z,10.4
2018-11-06T18:00:02.916Z,10.3
2018-11-06T18:15:03.437Z,10.1
2018-11-06T18:30:02.597Z,9.9
2018-11-06T18:45:02.917Z,9.5
2018-11-06T19:00:03.235Z,9.2
2018-11-06T19:15:02.488Z,9.1
2018-11-06T19:30:03.001Z,9
2018-11-06T19:45:03.367Z,8.7
2018-11-06T20:00:02.907Z,8.7
2018-11-06T20:15:03.139Z,8.7
2018-11-06T20:30:02.531Z,8.4
2018-11-06T20:45:02.820Z,8.2
2018-11-06T21:00:03.236Z,8.1
2018-11-06T21:15:02.493Z,7.8
2018-11-06T21:30:02.945Z,7.6
2018-11-06T21:45:03.218Z,7.5
2018-11-06T22:00:02.518Z,8.2
2018-11-06T22:15:02.779Z,7.8
2018-11-06T22:30:03.284Z,7.4
2018-11-06T22:45:02.656Z,7.5
2018-11-06T23:00:03.019Z,7.1
2018-11-06T23:15:03.339Z,7
2018-11-06T23:30:02.840Z,6.9
2018-11-06T23:45:02.997Z,6.9
